sensor_id;sensor_type;location;lat;lon;timestamp;temperature;humidity
66128;DHT22;52925;52.436;-1.952;2022-10-22T00:00:13;15.60;82.20
66128;DHT22;52925;52.436;-1.952;2022-10-22T00:01:34;15.50;82.00
66128;DHT22;52925;52.436;-1.952;2022-10-22T00:02:55;15.60;82.20
66128;DHT22;52925;52.436;-1.952;2022-10-22T00:04:15;15.50;82.00
66128;DHT22;52925;52.436;-1.952;2022-10-22T00:05:35;15.60;82.20
66128;DHT22;52925;52.436;-1.952;2022-10-22T00:06:56;15.60;82.10
66128;DHT22;52925;52.436;-1.952;2022-10-22T00:08:16;15.60;82.10
66128;DHT22;52925;52.436;-1.952;2022-10-22T00:09:36;15.50;82.00
66128;DHT22;52925;52.436;-1.952;2022-10-22T00:10:57;15.50;82.00
66128;DHT22;52925;52.436;-1.952;2022-10-22T00:12:18;15.60;82.10
66128;DHT22;52925;52.436;-1.952;2022-10-22T00:13:38;15.60;82.20
66128;DHT22;52925;52.436;-1.952;2022-10-22T00:14:59;15.60;82.00
66128;DHT22;52925;52.436;-1.952;2022-10-22T00:16:20;15.60;82.10
66128;DHT22;52925;52.436;-1.952;2022-10-22T00:17:41;15.60;82.10
66128;DHT22;52925;52.436;-1.952;2022-10-22T00:19:01;15.50;82.00
66128;DHT22;52925;52.436;-1.952;2022-10-22T00:20:21;15.50;82.10
66128;DHT22;52925;52.436;-1.952;2022-10-22T00:21:41;15.50;82.00
66128;DHT22;52925;52.436;-1.952;2022-10-22T00:23:02;15.50;82.20
66128;DHT22;52925;52.436;-1.952;2022-10-22T00:24:22;15.50;82.20
66128;DHT22;52925;52.436;-1.952;2022-10-22T00:25:43;15.50;82.20
66128;DHT22;52925;52.436;-1.952;2022-10-22T00:27:03;15.50;82.10
66128;DHT22;52925;52.436;-1.952;2022-10-22T00:28:25;15.50;82.30
66128;DHT22;52925;52.436;-1.952;2022-10-22T00:29:45;15.50;82.30
66128;DHT22;52925;52.436;-1.952;2022-10-22T00:31:06;15.50;82.30
66128;DHT22;52925;52.436;-1.952;2022-10-22T00:32:27;15.50;82.30
66128;DHT22;52925;52.436;-1.952;2022-10-22T00:33:48;15.50;82.30
66128;DHT22;52925;52.436;-1.952;2022-10-22T00:35:09;15.60;82.40
66128;DHT22;52925;52.436;-1.952;2022-10-22T00:36:29;15.60;82.10
66128;DHT22;52925;52.436;-1.952;2022-10-22T00:37:49;15.50;82.10
66128;DHT22;52925;52.436;-1.952;2022-10-22T00:39:10;15.50;82.20
66128;DHT22;52925;52.436;-1.952;2022-10-22T00:40:31;15.50;82.30
66128;DHT22;52925;52.436;-1.952;2022-10-22T00:41:53;15.50;82.30
66128;DHT22;52925;52.436;-1.952;2022-10-22T00:43:17;15.50;82.10
66128;DHT22;52925;52.436;-1.952;2022-10-22T00:45:09;15.50;82.10
66128;DHT22;52925;52.436;-1.952;2022-10-22T00:46:34;15.50;82.20
66128;DHT22;52925;52.436;-1.952;2022-10-22T00:47:59;15.50;82.20
66128;DHT22;52925;52.436;-1.952;2022-10-22T00:49:19;15.50;82.20
66128;DHT22;52925;52.436;-1.952;2022-10-22T00:50:43;15.50;82.20
66128;DHT22;52925;52.436;-1.952;2022-10-22T00:52:05;15.50;82.30
66128;DHT22;52925;52.436;-1.952;2022-10-22T00:53:29;15.50;82.20
66128;DHT22;52925;52.436;-1.952;2022-10-22T00:54:51;15.50;82.20
66128;DHT22;52925;52.436;-1.952;2022-10-22T00:56:11;15.50;82.20
66128;DHT22;52925;52.436;-1.952;2022-10-22T00:57:34;15.50;82.30
66128;DHT22;52925;52.436;-1.952;2022-10-22T00:58:56;15.50;82.30
66128;DHT22;52925;52.436;-1.952;2022-10-22T01:00:18;15.50;82.20
66128;DHT22;52925;52.436;-1.952;2022-10-22T01:01:38;15.50;82.20
66128;DHT22;52925;52.436;-1.952;2022-10-22T01:03:00;15.50;82.30
66128;DHT22;52925;52.436;-1.952;2022-10-22T01:04:21;15.50;82.20
66128;DHT22;52925;52.436;-1.952;2022-10-22T01:05:43;15.50;82.40
66128;DHT22;52925;52.436;-1.952;2022-10-22T01:07:05;15.50;82.30
66128;DHT22;52925;52.436;-1.952;2022-10-22T01:08:37;15.50;82.30
66128;DHT22;52925;52.436;-1.952;2022-10-22T01:10:05;15.50;82.20
66128;DHT22;52925;52.436;-1.952;2022-10-22T01:11:34;15.50;82.40
66128;DHT22;52925;52.436;-1.952;2022-10-22T01:13:05;15.50;82.30
66128;DHT22;52925;52.436;-1.952;2022-10-22T01:14:35;15.50;82.20
66128;DHT22;52925;52.436;-1.952;2022-10-22T01:16:06;15.50;82.20
66128;DHT22;52925;52.436;-1.952;2022-10-22T01:17:33;15.50;82.30
66128;DHT22;52925;52.436;-1.952;2022-10-22T01:19:09;15.50;82.20
66128;DHT22;52925;52.436;-1.952;2022-10-22T01:20:53;15.50;82.30
66128;DHT22;52925;52.436;-1.952;2022-10-22T01:22:19;15.40;82.20
66128;DHT22;52925;52.436;-1.952;2022-10-22T01:25:45;15.50;82.20
66128;DHT22;52925;52.436;-1.952;2022-10-22T01:27:27;15.50;82.30
66128;DHT22;52925;52.436;-1.952;2022-10-22T01:28:57;15.50;82.20
66128;DHT22;52925;52.436;-1.952;2022-10-22T01:30:21;15.50;82.20
66128;DHT22;52925;52.436;-1.952;2022-10-22T01:31:46;15.50;82.20
66128;DHT22;52925;52.436;-1.952;2022-10-22T01:33:09;15.50;82.20
66128;DHT22;52925;52.436;-1.952;2022-10-22T01:34:31;15.50;82.10
66128;DHT22;52925;52.436;-1.952;2022-10-22T01:35:52;15.50;82.20
66128;DHT22;52925;52.436;-1.952;2022-10-22T01:37:14;15.50;82.20
66128;DHT22;52925;52.436;-1.952;2022-10-22T01:38:37;15.50;82.20
66128;DHT22;52925;52.436;-1.952;2022-10-22T01:39:59;15.50;82.00
66128;DHT22;52925;52.436;-1.952;2022-10-22T01:41:20;15.50;82.10
66128;DHT22;52925;52.436;-1.952;2022-10-22T01:42:41;15.50;82.10
66128;DHT22;52925;52.436;-1.952;2022-10-22T01:44:02;15.50;82.00
66128;DHT22;52925;52.436;-1.952;2022-10-22T01:45:23;15.50;82.00
66128;DHT22;52925;52.436;-1.952;2022-10-22T01:46:46;15.50;82.00
66128;DHT22;52925;52.436;-1.952;2022-10-22T01:48:21;15.50;82.00
66128;DHT22;52925;52.436;-1.952;2022-10-22T01:51:38;15.50;82.00
66128;DHT22;52925;52.436;-1.952;2022-10-22T01:53:21;15.50;82.00
66128;DHT22;52925;52.436;-1.952;2022-10-22T01:54:51;15.50;82.20
66128;DHT22;52925;52.436;-1.952;2022-10-22T01:56:21;15.50;82.10
66128;DHT22;52925;52.436;-1.952;2022-10-22T01:57:51;15.50;82.00
66128;DHT22;52925;52.436;-1.952;2022-10-22T01:59:21;15.50;82.00
66128;DHT22;52925;52.436;-1.952;2022-10-22T02:00:49;15.50;82.00
66128;DHT22;52925;52.436;-1.952;2022-10-22T02:02:14;15.50;82.00
66128;DHT22;52925;52.436;-1.952;2022-10-22T02:03:40;15.50;82.00
66128;DHT22;52925;52.436;-1.952;2022-10-22T02:05:06;15.50;82.10
66128;DHT22;52925;52.436;-1.952;2022-10-22T02:06:30;15.50;82.00
66128;DHT22;52925;52.436;-1.952;2022-10-22T02:07:54;15.50;82.00
66128;DHT22;52925;52.436;-1.952;2022-10-22T02:09:17;15.50;82.00
66128;DHT22;52925;52.436;-1.952;2022-10-22T02:10:41;15.50;82.10
66128;DHT22;52925;52.436;-1.952;2022-10-22T02:12:06;15.50;82.10
66128;DHT22;52925;52.436;-1.952;2022-10-22T02:13:31;15.40;82.00
66128;DHT22;52925;52.436;-1.952;2022-10-22T02:14:56;15.50;82.00
66128;DHT22;52925;52.436;-1.952;2022-10-22T02:16:23;15.50;82.00
66128;DHT22;52925;52.436;-1.952;2022-10-22T02:17:46;15.50;82.10
66128;DHT22;52925;52.436;-1.952;2022-10-22T02:19:23;15.50;82.00
66128;DHT22;52925;52.436;-1.952;2022-10-22T02:20:44;15.50;82.00
66128;DHT22;52925;52.436;-1.952;2022-10-22T02:22:05;15.50;82.00
66128;DHT22;52925;52.436;-1.952;2022-10-22T02:23:27;15.50;82.00
66128;DHT22;52925;52.436;-1.952;2022-10-22T02:24:48;15.50;82.00
66128;DHT22;52925;52.436;-1.952;2022-10-22T02:26:15;15.50;82.00
66128;DHT22;52925;52.436;-1.952;2022-10-22T02:27:41;15.50;82.00
66128;DHT22;52925;52.436;-1.952;2022-10-22T02:29:08;15.50;82.00
66128;DHT22;52925;52.436;-1.952;2022-10-22T02:30:33;15.50;82.00
66128;DHT22;52925;52.436;-1.952;2022-10-22T02:31:55;15.40;82.00
66128;DHT22;52925;52.436;-1.952;2022-10-22T02:33:19;15.50;82.10
66128;DHT22;52925;52.436;-1.952;2022-10-22T02:34:41;15.50;82.10
66128;DHT22;52925;52.436;-1.952;2022-10-22T02:36:02;15.50;82.20
66128;DHT22;52925;52.436;-1.952;2022-10-22T02:37:24;15.40;82.10
66128;DHT22;52925;52.436;-1.952;2022-10-22T02:38:45;15.50;82.20
66128;DHT22;52925;52.436;-1.952;2022-10-22T02:40:06;15.40;82.10
66128;DHT22;52925;52.436;-1.952;2022-10-22T02:41:28;15.50;82.30
66128;DHT22;52925;52.436;-1.952;2022-10-22T02:42:50;15.50;82.20
66128;DHT22;52925;52.436;-1.952;2022-10-22T02:44:11;15.50;82.10
66128;DHT22;52925;52.436;-1.952;2022-10-22T02:45:33;15.40;82.10
66128;DHT22;52925;52.436;-1.952;2022-10-22T02:46:54;15.50;82.20
66128;DHT22;52925;52.436;-1.952;2022-10-22T02:48:14;15.40;82.20
66128;DHT22;52925;52.436;-1.952;2022-10-22T02:49:35;15.50;82.20
66128;DHT22;52925;52.436;-1.952;2022-10-22T02:50:56;15.50;82.20
66128;DHT22;52925;52.436;-1.952;2022-10-22T02:52:16;15.40;82.20
66128;DHT22;52925;52.436;-1.952;2022-10-22T02:53:40;15.50;82.40
66128;DHT22;52925;52.436;-1.952;2022-10-22T02:54:59;15.50;82.40
66128;DHT22;52925;52.436;-1.952;2022-10-22T02:56:20;15.40;82.50
66128;DHT22;52925;52.436;-1.952;2022-10-22T02:57:40;15.40;82.40
66128;DHT22;52925;52.436;-1.952;2022-10-22T02:59:01;15.50;82.50
66128;DHT22;52925;52.436;-1.952;2022-10-22T03:00:21;15.40;82.40
66128;DHT22;52925;52.436;-1.952;2022-10-22T03:01:43;15.40;82.40
66128;DHT22;52925;52.436;-1.952;2022-10-22T03:03:02;15.50;82.40
66128;DHT22;52925;52.436;-1.952;2022-10-22T03:04:23;15.40;82.40
66128;DHT22;52925;52.436;-1.952;2022-10-22T03:05:43;15.40;82.40
66128;DHT22;52925;52.436;-1.952;2022-10-22T03:07:04;15.40;82.40
66128;DHT22;52925;52.436;-1.952;2022-10-22T03:08:25;15.40;82.40
66128;DHT22;52925;52.436;-1.952;2022-10-22T03:09:44;15.50;82.40
66128;DHT22;52925;52.436;-1.952;2022-10-22T03:11:05;15.40;82.20
66128;DHT22;52925;52.436;-1.952;2022-10-22T03:12:25;15.40;82.30
66128;DHT22;52925;52.436;-1.952;2022-10-22T03:13:46;15.40;82.40
66128;DHT22;52925;52.436;-1.952;2022-10-22T03:15:07;15.40;82.40
66128;DHT22;52925;52.436;-1.952;2022-10-22T03:16:28;15.40;82.30
66128;DHT22;52925;52.436;-1.952;2022-10-22T03:17:50;15.40;82.20
66128;DHT22;52925;52.436;-1.952;2022-10-22T03:19:10;15.40;82.20
66128;DHT22;52925;52.436;-1.952;2022-10-22T03:20:31;15.40;82.20
66128;DHT22;52925;52.436;-1.952;2022-10-22T03:21:54;15.50;82.10
66128;DHT22;52925;52.436;-1.952;2022-10-22T03:23:17;15.50;82.00
66128;DHT22;52925;52.436;-1.952;2022-10-22T03:24:40;15.40;81.90
66128;DHT22;52925;52.436;-1.952;2022-10-22T03:26:02;15.40;82.00
66128;DHT22;52925;52.436;-1.952;2022-10-22T03:27:22;15.40;82.00
66128;DHT22;52925;52.436;-1.952;2022-10-22T03:28:44;15.40;82.10
66128;DHT22;52925;52.436;-1.952;2022-10-22T03:30:07;15.40;82.10
66128;DHT22;52925;52.436;-1.952;2022-10-22T03:31:28;15.40;82.00
66128;DHT22;52925;52.436;-1.952;2022-10-22T03:32:50;15.40;81.90
66128;DHT22;52925;52.436;-1.952;2022-10-22T03:34:10;15.40;82.00
66128;DHT22;52925;52.436;-1.952;2022-10-22T03:35:32;15.40;81.90
66128;DHT22;52925;52.436;-1.952;2022-10-22T03:36:57;15.40;81.90
66128;DHT22;52925;52.436;-1.952;2022-10-22T03:38:19;15.40;81.90
66128;DHT22;52925;52.436;-1.952;2022-10-22T03:39:39;15.40;81.90
66128;DHT22;52925;52.436;-1.952;2022-10-22T03:41:00;15.50;81.90
66128;DHT22;52925;52.436;-1.952;2022-10-22T03:42:20;15.50;81.70
66128;DHT22;52925;52.436;-1.952;2022-10-22T03:43:41;15.50;81.70
66128;DHT22;52925;52.436;-1.952;2022-10-22T03:45:01;15.50;81.70
66128;DHT22;52925;52.436;-1.952;2022-10-22T03:46:21;15.50;81.70
66128;DHT22;52925;52.436;-1.952;2022-10-22T03:47:42;15.50;81.60
66128;DHT22;52925;52.436;-1.952;2022-10-22T03:49:04;15.50;81.60
66128;DHT22;52925;52.436;-1.952;2022-10-22T03:50:24;15.50;81.60
66128;DHT22;52925;52.436;-1.952;2022-10-22T03:51:44;15.50;81.60
66128;DHT22;52925;52.436;-1.952;2022-10-22T03:53:05;15.50;81.50
66128;DHT22;52925;52.436;-1.952;2022-10-22T03:54:29;15.50;81.50
66128;DHT22;52925;52.436;-1.952;2022-10-22T03:55:49;15.50;81.50
66128;DHT22;52925;52.436;-1.952;2022-10-22T03:57:10;15.40;81.50
66128;DHT22;52925;52.436;-1.952;2022-10-22T03:58:29;15.40;82.40
66128;DHT22;52925;52.436;-1.952;2022-10-22T03:59:50;15.40;81.60
66128;DHT22;52925;52.436;-1.952;2022-10-22T04:01:11;15.50;81.60
66128;DHT22;52925;52.436;-1.952;2022-10-22T04:02:33;15.50;81.60
66128;DHT22;52925;52.436;-1.952;2022-10-22T04:03:53;15.40;81.60
66128;DHT22;52925;52.436;-1.952;2022-10-22T04:05:16;15.40;81.60
66128;DHT22;52925;52.436;-1.952;2022-10-22T04:06:36;15.50;81.70
66128;DHT22;52925;52.436;-1.952;2022-10-22T04:07:56;15.40;81.50
66128;DHT22;52925;52.436;-1.952;2022-10-22T04:09:16;15.40;81.60
66128;DHT22;52925;52.436;-1.952;2022-10-22T04:10:37;15.40;81.40
66128;DHT22;52925;52.436;-1.952;2022-10-22T04:11:57;15.50;81.60
66128;DHT22;52925;52.436;-1.952;2022-10-22T04:13:17;15.40;81.70
66128;DHT22;52925;52.436;-1.952;2022-10-22T04:14:38;15.40;81.70
66128;DHT22;52925;52.436;-1.952;2022-10-22T04:16:06;15.50;81.80
66128;DHT22;52925;52.436;-1.952;2022-10-22T04:17:32;15.40;81.60
66128;DHT22;52925;52.436;-1.952;2022-10-22T04:18:52;15.40;81.60
66128;DHT22;52925;52.436;-1.952;2022-10-22T04:20:14;15.40;81.70
66128;DHT22;52925;52.436;-1.952;2022-10-22T04:21:34;15.40;81.60
66128;DHT22;52925;52.436;-1.952;2022-10-22T04:22:55;15.40;81.70
66128;DHT22;52925;52.436;-1.952;2022-10-22T04:24:16;15.40;81.70
66128;DHT22;52925;52.436;-1.952;2022-10-22T04:25:36;15.40;81.70
66128;DHT22;52925;52.436;-1.952;2022-10-22T04:26:57;15.40;81.70
66128;DHT22;52925;52.436;-1.952;2022-10-22T04:28:17;15.40;81.60
66128;DHT22;52925;52.436;-1.952;2022-10-22T04:29:38;15.40;81.60
66128;DHT22;52925;52.436;-1.952;2022-10-22T04:30:59;15.40;81.60
66128;DHT22;52925;52.436;-1.952;2022-10-22T04:32:19;15.40;81.70
66128;DHT22;52925;52.436;-1.952;2022-10-22T04:33:40;15.40;81.60
66128;DHT22;52925;52.436;-1.952;2022-10-22T04:35:00;15.40;81.70
66128;DHT22;52925;52.436;-1.952;2022-10-22T04:36:22;15.40;81.60
66128;DHT22;52925;52.436;-1.952;2022-10-22T04:37:43;15.40;81.60
66128;DHT22;52925;52.436;-1.952;2022-10-22T04:39:04;15.40;81.60
66128;DHT22;52925;52.436;-1.952;2022-10-22T04:40:24;15.40;81.60
66128;DHT22;52925;52.436;-1.952;2022-10-22T04:41:45;15.40;81.50
66128;DHT22;52925;52.436;-1.952;2022-10-22T04:43:04;15.40;81.60
66128;DHT22;52925;52.436;-1.952;2022-10-22T04:44:25;15.40;81.50
66128;DHT22;52925;52.436;-1.952;2022-10-22T04:45:45;15.40;81.60
66128;DHT22;52925;52.436;-1.952;2022-10-22T04:47:05;15.40;81.50
66128;DHT22;52925;52.436;-1.952;2022-10-22T04:48:25;15.40;81.30
66128;DHT22;52925;52.436;-1.952;2022-10-22T04:49:46;15.40;81.40
66128;DHT22;52925;52.436;-1.952;2022-10-22T04:51:08;15.50;81.20
66128;DHT22;52925;52.436;-1.952;2022-10-22T04:52:31;15.40;81.10
66128;DHT22;52925;52.436;-1.952;2022-10-22T04:53:53;15.40;81.30
66128;DHT22;52925;52.436;-1.952;2022-10-22T04:55:14;15.40;81.30
66128;DHT22;52925;52.436;-1.952;2022-10-22T04:56:34;15.40;81.80
66128;DHT22;52925;52.436;-1.952;2022-10-22T04:57:54;15.40;81.10
66128;DHT22;52925;52.436;-1.952;2022-10-22T04:59:15;15.40;81.10
66128;DHT22;52925;52.436;-1.952;2022-10-22T05:00:35;15.40;81.10
66128;DHT22;52925;52.436;-1.952;2022-10-22T05:01:56;15.40;81.00
66128;DHT22;52925;52.436;-1.952;2022-10-22T05:03:17;15.50;81.20
66128;DHT22;52925;52.436;-1.952;2022-10-22T05:04:36;15.40;81.10
66128;DHT22;52925;52.436;-1.952;2022-10-22T05:06:00;15.40;81.10
66128;DHT22;52925;52.436;-1.952;2022-10-22T05:07:20;15.40;81.10
66128;DHT22;52925;52.436;-1.952;2022-10-22T05:08:43;15.40;81.00
66128;DHT22;52925;52.436;-1.952;2022-10-22T05:10:03;15.40;81.10
66128;DHT22;52925;52.436;-1.952;2022-10-22T05:11:26;15.40;81.10
66128;DHT22;52925;52.436;-1.952;2022-10-22T05:12:47;15.40;81.10
66128;DHT22;52925;52.436;-1.952;2022-10-22T05:14:09;15.40;81.00
66128;DHT22;52925;52.436;-1.952;2022-10-22T05:15:29;15.40;80.90
66128;DHT22;52925;52.436;-1.952;2022-10-22T05:16:50;15.40;80.90
66128;DHT22;52925;52.436;-1.952;2022-10-22T05:18:11;15.40;80.90
66128;DHT22;52925;52.436;-1.952;2022-10-22T05:19:31;15.40;81.00
66128;DHT22;52925;52.436;-1.952;2022-10-22T05:20:52;15.40;81.10
66128;DHT22;52925;52.436;-1.952;2022-10-22T05:22:11;15.40;81.00
66128;DHT22;52925;52.436;-1.952;2022-10-22T05:23:32;15.40;81.10
66128;DHT22;52925;52.436;-1.952;2022-10-22T05:24:54;15.40;81.10
66128;DHT22;52925;52.436;-1.952;2022-10-22T05:26:17;15.40;80.90
66128;DHT22;52925;52.436;-1.952;2022-10-22T05:27:37;15.40;80.80
66128;DHT22;52925;52.436;-1.952;2022-10-22T05:28:58;15.40;80.80
66128;DHT22;52925;52.436;-1.952;2022-10-22T05:30:18;15.40;80.90
66128;DHT22;52925;52.436;-1.952;2022-10-22T05:31:38;15.40;81.00
66128;DHT22;52925;52.436;-1.952;2022-10-22T05:32:59;15.40;80.90
66128;DHT22;52925;52.436;-1.952;2022-10-22T05:34:19;15.40;80.90
66128;DHT22;52925;52.436;-1.952;2022-10-22T05:35:40;15.40;80.90
66128;DHT22;52925;52.436;-1.952;2022-10-22T05:37:00;15.40;80.80
66128;DHT22;52925;52.436;-1.952;2022-10-22T05:38:21;15.40;81.00
66128;DHT22;52925;52.436;-1.952;2022-10-22T05:39:41;15.40;80.80
66128;DHT22;52925;52.436;-1.952;2022-10-22T05:41:05;15.40;80.80
66128;DHT22;52925;52.436;-1.952;2022-10-22T05:42:25;15.40;80.80
66128;DHT22;52925;52.436;-1.952;2022-10-22T05:43:52;15.40;80.70
66128;DHT22;52925;52.436;-1.952;2022-10-22T05:45:14;15.40;80.70
66128;DHT22;52925;52.436;-1.952;2022-10-22T05:46:34;15.40;80.80
66128;DHT22;52925;52.436;-1.952;2022-10-22T05:47:55;15.40;80.70
66128;DHT22;52925;52.436;-1.952;2022-10-22T05:49:15;15.30;80.60
66128;DHT22;52925;52.436;-1.952;2022-10-22T05:50:36;15.30;80.60
66128;DHT22;52925;52.436;-1.952;2022-10-22T05:51:56;15.30;80.60
66128;DHT22;52925;52.436;-1.952;2022-10-22T05:53:17;15.30;81.30
66128;DHT22;52925;52.436;-1.952;2022-10-22T05:54:38;15.40;80.60
66128;DHT22;52925;52.436;-1.952;2022-10-22T05:56:00;15.30;80.50
66128;DHT22;52925;52.436;-1.952;2022-10-22T05:57:21;15.30;80.40
66128;DHT22;52925;52.436;-1.952;2022-10-22T05:58:43;15.30;80.50
66128;DHT22;52925;52.436;-1.952;2022-10-22T06:00:03;15.30;80.50
66128;DHT22;52925;52.436;-1.952;2022-10-22T06:01:26;15.30;80.30
66128;DHT22;52925;52.436;-1.952;2022-10-22T06:02:49;15.30;80.40
66128;DHT22;52925;52.436;-1.952;2022-10-22T06:04:11;15.30;80.40
66128;DHT22;52925;52.436;-1.952;2022-10-22T06:05:34;15.30;80.30
66128;DHT22;52925;52.436;-1.952;2022-10-22T06:06:54;15.30;80.20
66128;DHT22;52925;52.436;-1.952;2022-10-22T06:08:15;15.30;80.20
66128;DHT22;52925;52.436;-1.952;2022-10-22T06:09:35;15.30;80.10
66128;DHT22;52925;52.436;-1.952;2022-10-22T06:10:56;15.30;80.10
66128;DHT22;52925;52.436;-1.952;2022-10-22T06:12:16;15.40;80.10
66128;DHT22;52925;52.436;-1.952;2022-10-22T06:13:38;15.30;79.90
66128;DHT22;52925;52.436;-1.952;2022-10-22T06:14:58;15.40;80.10
66128;DHT22;52925;52.436;-1.952;2022-10-22T06:16:19;15.40;80.00
66128;DHT22;52925;52.436;-1.952;2022-10-22T06:17:39;15.40;80.00
66128;DHT22;52925;52.436;-1.952;2022-10-22T06:19:00;15.40;80.10
66128;DHT22;52925;52.436;-1.952;2022-10-22T06:20:21;15.30;80.00
66128;DHT22;52925;52.436;-1.952;2022-10-22T06:21:42;15.30;80.00
66128;DHT22;52925;52.436;-1.952;2022-10-22T06:23:03;15.30;80.00
66128;DHT22;52925;52.436;-1.952;2022-10-22T06:24:23;15.30;80.00
66128;DHT22;52925;52.436;-1.952;2022-10-22T06:25:44;15.30;80.10
66128;DHT22;52925;52.436;-1.952;2022-10-22T06:27:15;15.30;80.00
66128;DHT22;52925;52.436;-1.952;2022-10-22T06:28:37;15.30;80.00
66128;DHT22;52925;52.436;-1.952;2022-10-22T06:29:58;15.30;80.00
66128;DHT22;52925;52.436;-1.952;2022-10-22T06:31:19;15.30;80.10
66128;DHT22;52925;52.436;-1.952;2022-10-22T06:32:40;15.30;80.10
66128;DHT22;52925;52.436;-1.952;2022-10-22T06:34:00;15.30;80.10
66128;DHT22;52925;52.436;-1.952;2022-10-22T06:35:21;15.30;80.10
66128;DHT22;52925;52.436;-1.952;2022-10-22T06:36:43;15.30;80.10
66128;DHT22;52925;52.436;-1.952;2022-10-22T06:38:03;15.30;80.10
66128;DHT22;52925;52.436;-1.952;2022-10-22T06:39:25;15.30;80.00
66128;DHT22;52925;52.436;-1.952;2022-10-22T06:40:46;15.30;80.00
66128;DHT22;52925;52.436;-1.952;2022-10-22T06:42:06;15.30;80.00
66128;DHT22;52925;52.436;-1.952;2022-10-22T06:43:27;15.30;80.00
66128;DHT22;52925;52.436;-1.952;2022-10-22T06:44:48;15.20;80.00
66128;DHT22;52925;52.436;-1.952;2022-10-22T06:46:09;15.20;80.00
66128;DHT22;52925;52.436;-1.952;2022-10-22T06:47:29;15.20;80.00
66128;DHT22;52925;52.436;-1.952;2022-10-22T06:48:55;15.30;80.10
66128;DHT22;52925;52.436;-1.952;2022-10-22T06:50:16;15.30;80.00
66128;DHT22;52925;52.436;-1.952;2022-10-22T06:51:37;15.20;79.90
66128;DHT22;52925;52.436;-1.952;2022-10-22T06:52:58;15.30;80.00
66128;DHT22;52925;52.436;-1.952;2022-10-22T06:54:18;15.20;79.90
66128;DHT22;52925;52.436;-1.952;2022-10-22T06:55:38;15.20;80.00
66128;DHT22;52925;52.436;-1.952;2022-10-22T06:56:59;15.20;79.90
66128;DHT22;52925;52.436;-1.952;2022-10-22T06:58:19;15.30;80.00
66128;DHT22;52925;52.436;-1.952;2022-10-22T06:59:39;15.20;79.90
66128;DHT22;52925;52.436;-1.952;2022-10-22T07:01:03;15.20;79.90
66128;DHT22;52925;52.436;-1.952;2022-10-22T07:02:24;15.30;79.90
66128;DHT22;52925;52.436;-1.952;2022-10-22T07:03:45;15.20;79.90
66128;DHT22;52925;52.436;-1.952;2022-10-22T07:05:07;15.20;79.80
66128;DHT22;52925;52.436;-1.952;2022-10-22T07:06:28;15.20;79.70
66128;DHT22;52925;52.436;-1.952;2022-10-22T07:07:48;15.30;79.80
66128;DHT22;52925;52.436;-1.952;2022-10-22T07:09:09;15.20;79.80
66128;DHT22;52925;52.436;-1.952;2022-10-22T07:10:29;15.20;79.80
66128;DHT22;52925;52.436;-1.952;2022-10-22T07:11:49;15.20;79.70
66128;DHT22;52925;52.436;-1.952;2022-10-22T07:13:10;15.20;79.70
66128;DHT22;52925;52.436;-1.952;2022-10-22T07:14:31;15.20;79.80
66128;DHT22;52925;52.436;-1.952;2022-10-22T07:15:52;15.20;79.80
66128;DHT22;52925;52.436;-1.952;2022-10-22T07:17:14;15.30;79.80
66128;DHT22;52925;52.436;-1.952;2022-10-22T07:18:36;15.20;79.80
66128;DHT22;52925;52.436;-1.952;2022-10-22T07:19:56;15.20;79.80
66128;DHT22;52925;52.436;-1.952;2022-10-22T07:21:18;15.20;80.50
66128;DHT22;52925;52.436;-1.952;2022-10-22T07:22:40;15.20;79.70
66128;DHT22;52925;52.436;-1.952;2022-10-22T07:24:01;15.30;79.70
66128;DHT22;52925;52.436;-1.952;2022-10-22T07:25:21;15.20;79.60
66128;DHT22;52925;52.436;-1.952;2022-10-22T07:26:42;15.30;79.70
66128;DHT22;52925;52.436;-1.952;2022-10-22T07:28:03;15.20;79.60
66128;DHT22;52925;52.436;-1.952;2022-10-22T07:29:24;15.30;79.60
66128;DHT22;52925;52.436;-1.952;2022-10-22T07:30:44;15.20;79.50
66128;DHT22;52925;52.436;-1.952;2022-10-22T07:32:05;15.20;79.50
66128;DHT22;52925;52.436;-1.952;2022-10-22T07:33:28;15.30;79.60
66128;DHT22;52925;52.436;-1.952;2022-10-22T07:34:48;15.30;79.50
66128;DHT22;52925;52.436;-1.952;2022-10-22T07:36:11;15.30;79.50
66128;DHT22;52925;52.436;-1.952;2022-10-22T07:37:35;15.20;79.30
66128;DHT22;52925;52.436;-1.952;2022-10-22T07:38:57;15.30;79.50
66128;DHT22;52925;52.436;-1.952;2022-10-22T07:40:18;15.30;79.60
66128;DHT22;52925;52.436;-1.952;2022-10-22T07:41:39;15.20;79.40
66128;DHT22;52925;52.436;-1.952;2022-10-22T07:42:59;15.20;79.50
66128;DHT22;52925;52.436;-1.952;2022-10-22T07:44:19;15.30;79.50
66128;DHT22;52925;52.436;-1.952;2022-10-22T07:45:40;15.20;79.40
66128;DHT22;52925;52.436;-1.952;2022-10-22T07:47:01;15.20;79.30
66128;DHT22;52925;52.436;-1.952;2022-10-22T07:48:22;15.20;79.30
66128;DHT22;52925;52.436;-1.952;2022-10-22T07:49:44;15.20;79.30
66128;DHT22;52925;52.436;-1.952;2022-10-22T07:51:05;15.20;79.30
66128;DHT22;52925;52.436;-1.952;2022-10-22T07:52:26;15.20;79.40
66128;DHT22;52925;52.436;-1.952;2022-10-22T07:53:47;15.20;79.40
66128;DHT22;52925;52.436;-1.952;2022-10-22T07:55:08;15.20;79.50
66128;DHT22;52925;52.436;-1.952;2022-10-22T07:56:29;15.20;79.60
66128;DHT22;52925;52.436;-1.952;2022-10-22T07:57:50;15.20;79.50
66128;DHT22;52925;52.436;-1.952;2022-10-22T07:59:10;15.20;79.40
66128;DHT22;52925;52.436;-1.952;2022-10-22T08:00:30;15.20;79.50
66128;DHT22;52925;52.436;-1.952;2022-10-22T08:01:50;15.20;79.50
66128;DHT22;52925;52.436;-1.952;2022-10-22T08:03:12;15.20;79.60
66128;DHT22;52925;52.436;-1.952;2022-10-22T08:04:32;15.20;79.60
66128;DHT22;52925;52.436;-1.952;2022-10-22T08:05:55;15.20;79.70
66128;DHT22;52925;52.436;-1.952;2022-10-22T08:07:16;15.20;79.60
66128;DHT22;52925;52.436;-1.952;2022-10-22T08:08:36;15.20;79.70
66128;DHT22;52925;52.436;-1.952;2022-10-22T08:09:57;15.20;79.80
66128;DHT22;52925;52.436;-1.952;2022-10-22T08:11:17;15.20;79.70
66128;DHT22;52925;52.436;-1.952;2022-10-22T08:12:39;15.20;79.70
66128;DHT22;52925;52.436;-1.952;2022-10-22T08:13:58;15.20;79.70
66128;DHT22;52925;52.436;-1.952;2022-10-22T08:15:19;15.10;79.70
66128;DHT22;52925;52.436;-1.952;2022-10-22T08:16:40;15.10;79.70
66128;DHT22;52925;52.436;-1.952;2022-10-22T08:18:02;15.20;79.80
66128;DHT22;52925;52.436;-1.952;2022-10-22T08:19:22;15.20;79.80
66128;DHT22;52925;52.436;-1.952;2022-10-22T08:20:43;15.20;79.90
66128;DHT22;52925;52.436;-1.952;2022-10-22T08:22:04;15.20;79.80
66128;DHT22;52925;52.436;-1.952;2022-10-22T08:23:25;15.20;79.90
66128;DHT22;52925;52.436;-1.952;2022-10-22T08:24:47;15.20;79.90
66128;DHT22;52925;52.436;-1.952;2022-10-22T08:26:07;15.20;79.90
66128;DHT22;52925;52.436;-1.952;2022-10-22T08:27:28;15.20;79.80
66128;DHT22;52925;52.436;-1.952;2022-10-22T08:28:47;15.20;79.80
66128;DHT22;52925;52.436;-1.952;2022-10-22T08:30:10;15.20;79.80
66128;DHT22;52925;52.436;-1.952;2022-10-22T08:31:30;15.20;79.80
66128;DHT22;52925;52.436;-1.952;2022-10-22T08:32:51;15.20;79.80